createdAt,value
2023-09-20T00:00:08.272Z,96524.38
2023-09-20T00:02:09.892Z,96523.13
2023-09-20T00:04:11.473Z,96526.22
2023-09-20T00:06:14.376Z,96521.88
2023-09-20T00:08:15.966Z,96523.34
2023-09-20T00:10:18.020Z,96520.66
2023-09-20T00:12:19.515Z,96523.53
2023-09-20T00:14:21.090Z,96520.22
2023-09-20T00:16:22.713Z,96522.94
2023-09-20T00:18:25.309Z,96526.22
2023-09-20T00:20:26.891Z,96522.31
2023-09-20T00:22:29.733Z,96519.41
2023-09-20T00:24:31.229Z,96513.25
2023-09-20T00:26:33.152Z,96520.75
2023-09-20T00:28:34.707Z,96517.41
2023-09-20T00:30:36.197Z,96519.28
2023-09-20T00:32:38.923Z,96519.28
2023-09-20T00:34:40.628Z,96509.41
2023-09-20T00:36:42.129Z,96506.31
2023-09-20T00:38:45.046Z,96504.19
2023-09-20T00:40:46.564Z,96504.25
2023-09-20T00:42:49.942Z,96510.56
2023-09-20T00:44:51.455Z,96504.19
2023-09-20T00:46:53.450Z,96505.44
2023-09-20T00:48:55.312Z,96505.44
2023-09-20T00:50:57.685Z,96507.53
2023-09-20T00:52:59.942Z,96502.34
2023-09-20T00:55:02.826Z,96491.44
2023-09-20T00:57:04.749Z,96498.06
2023-09-20T00:59:06.398Z,96498.91
2023-09-20T01:01:08.016Z,96492.28
2023-09-20T01:03:10.389Z,96490.59
2023-09-20T01:05:12.130Z,96481.13
2023-09-20T01:07:13.756Z,96489.16
2023-09-20T01:09:15.261Z,96485.00
2023-09-20T01:11:18.202Z,96488.69
2023-09-20T01:13:19.842Z,96470.00
2023-09-20T01:15:21.627Z,96484.38
2023-09-20T01:17:23.235Z,96484.53
2023-09-20T01:19:24.864Z,96490.97
2023-09-20T01:21:26.387Z,96488.56
2023-09-20T01:23:29.290Z,96483.31
2023-09-20T01:25:32.549Z,96475.81
2023-09-20T01:27:34.836Z,96486.09
2023-09-20T01:29:36.363Z,96485.41
2023-09-20T01:31:38.018Z,96484.59
2023-09-20T01:33:39.692Z,96496.94
2023-09-20T01:35:41.238Z,96495.31
2023-09-20T01:37:42.826Z,96488.13
2023-09-20T01:39:45.706Z,96486.91
2023-09-20T01:41:47.208Z,96487.94
2023-09-20T01:43:48.765Z,96496.78
2023-09-20T01:45:50.286Z,96494.97
2023-09-20T01:47:53.147Z,96484.63
2023-09-20T01:49:54.843Z,96484.63
2023-09-20T01:51:56.424Z,96485.88
2023-09-20T01:53:57.916Z,96487.97
2023-09-20T01:56:00.814Z,96486.31
2023-09-20T01:58:02.332Z,96481.78
2023-09-20T02:00:04.910Z,96481.19
2023-09-20T02:02:06.427Z,96486.31
2023-09-20T02:04:08.071Z,96485.69
2023-09-20T02:06:09.576Z,96486.31
2023-09-20T02:08:11.305Z,96482.81
2023-09-20T02:10:13.155Z,96483.84
2023-09-20T02:12:15.992Z,96473.56
2023-09-20T02:14:17.546Z,96471.03
2023-09-20T02:16:19.100Z,96477.44
2023-09-20T02:18:20.681Z,96477.66
2023-09-20T02:20:23.782Z,96474.16
2023-09-20T02:22:25.322Z,96470.66
2023-09-20T02:24:26.840Z,96471.88
2023-09-20T02:26:28.402Z,96475.19
2023-09-20T02:28:32.424Z,96476.03
2023-09-20T02:30:34.186Z,96472.75
2023-09-20T02:32:36.184Z,96476.03
2023-09-20T02:34:37.792Z,96471.69
2023-09-20T02:36:39.292Z,96477.47
2023-09-20T02:38:41.013Z,96470.25
2023-09-20T02:40:42.802Z,96470.66
2023-09-20T02:42:45.742Z,96476.22
2023-09-20T02:44:48.685Z,96471.88
2023-09-20T02:46:50.196Z,96476.41
2023-09-20T02:48:51.726Z,96467.31
2023-09-20T02:50:53.352Z,96473.94
2023-09-20T02:52:54.868Z,96465.72
2023-09-20T02:54:56.381Z,96471.66
2023-09-20T02:56:57.993Z,96460.78
2023-09-20T02:58:59.519Z,96461.63
2023-09-20T03:01:02.404Z,96460.75
2023-09-20T03:03:04.777Z,96461.22
2023-09-20T03:05:07.027Z,96451.72
2023-09-20T03:07:08.601Z,96457.06
2023-09-20T03:09:10.115Z,96454.22
2023-09-20T03:11:11.659Z,96450.16
2023-09-20T03:13:13.948Z,96458.31
2023-09-20T03:15:16.942Z,96452.16
2023-09-20T03:17:19.865Z,96456.84
2023-09-20T03:19:21.412Z,96450.53
2023-09-20T03:21:23.018Z,96442.50
2023-09-20T03:23:24.538Z,96451.59
2023-09-20T03:25:26.868Z,96446.38
2023-09-20T03:27:28.370Z,96448.84
2023-09-20T03:29:29.966Z,96432.22
2023-09-20T03:31:31.980Z,96430.19
2023-09-20T03:33:34.977Z,96433.28
2023-09-20T03:35:36.566Z,96431.22
2023-09-20T03:37:38.204Z,96432.88
2023-09-20T03:39:39.717Z,96430.63
2023-09-20T03:41:41.240Z,96432.88
2023-09-20T03:43:42.807Z,96425.88
2023-09-20T03:45:44.301Z,96431.25
2023-09-20T03:47:47.517Z,96434.97
2023-09-20T03:49:52.698Z,96430.44
2023-09-20T03:51:54.207Z,96419.53
2023-09-20T03:53:55.789Z,96427.53
2023-09-20T03:55:57.310Z,96419.94
2023-09-20T03:57:58.789Z,96421.00
2023-09-20T04:00:00.408Z,96429.81
2023-09-20T04:02:01.927Z,96423.88
2023-09-20T04:04:03.578Z,96424.28
2023-09-20T04:06:06.553Z,96421.41
2023-09-20T04:08:08.119Z,96422.41
2023-09-20T04:10:10.239Z,96432.47
2023-09-20T04:12:12.182Z,96428.78
2023-09-20T04:14:13.800Z,96418.06
2023-09-20T04:16:15.382Z,96411.06
2023-09-20T04:18:17.189Z,96417.03
2023-09-20T04:20:19.496Z,96418.03
2023-09-20T04:22:22.456Z,96408.56
2023-09-20T04:24:23.991Z,96414.34
2023-09-20T04:26:25.556Z,96404.22
2023-09-20T04:28:27.091Z,96405.69
2023-09-20T04:30:28.681Z,96408.16
2023-09-20T04:32:30.544Z,96401.38
2023-09-20T04:34:32.105Z,96405.13
2023-09-20T04:36:33.617Z,96399.97
2023-09-20T04:38:36.545Z,96400.16
2023-09-20T04:40:38.242Z,96409.88
2023-09-20T04:42:39.822Z,96408.66
2023-09-20T04:44:41.387Z,96410.28
2023-09-20T04:46:42.967Z,96409.69
2023-09-20T04:48:44.590Z,96415.66
2023-09-20T04:50:49.790Z,96406.19
2023-09-20T04:52:51.290Z,96404.72
2023-09-20T04:54:55.278Z,96411.53
2023-09-20T04:56:56.832Z,96402.88
2023-09-20T04:58:58.324Z,96404.94
2023-09-20T05:00:59.909Z,96400.84
2023-09-20T05:03:01.735Z,96403.69
2023-09-20T05:05:03.748Z,96407.84
2023-09-20T05:07:05.291Z,96408.84
2023-09-20T05:09:06.778Z,96402.47
2023-09-20T05:11:09.862Z,96401.63
2023-09-20T05:13:11.836Z,96400.41
2023-09-20T05:15:13.405Z,96402.25
2023-09-20T05:17:14.968Z,96397.13
2023-09-20T05:19:16.504Z,96405.75
2023-09-20T05:21:18.016Z,96407.81
2023-09-20T05:23:19.579Z,96408.03
2023-09-20T05:25:21.113Z,96393.63
2023-09-20T05:27:24.012Z,96402.03
2023-09-20T05:29:25.637Z,96404.53
2023-09-20T05:31:27.284Z,96403.28
2023-09-20T05:33:28.847Z,96411.09
2023-09-20T05:35:30.464Z,96408.84
2023-09-20T05:37:32.018Z,96411.91
2023-09-20T05:39:33.715Z,96410.72
2023-09-20T05:41:35.339Z,96416.06
2023-09-20T05:43:38.325Z,96422.22
2023-09-20T05:45:39.866Z,96418.09
2023-09-20T05:47:41.779Z,96410.63
2023-09-20T05:49:43.315Z,96417.22
2023-09-20T05:51:44.835Z,96406.53
2023-09-20T05:53:46.384Z,96413.53
2023-09-20T05:55:47.901Z,96413.53
2023-09-20T05:57:49.409Z,96418.81
2023-09-20T05:59:52.486Z,96414.06
2023-09-20T06:01:54.074Z,96422.72
2023-09-20T06:03:55.632Z,96419.97
2023-09-20T06:05:57.247Z,96421.44
2023-09-20T06:07:58.767Z,96422.09
2023-09-20T06:10:00.270Z,96419.69
2023-09-20T06:12:01.794Z,96419.41
2023-09-20T06:14:03.474Z,96418.94
2023-09-20T06:16:07.933Z,96405.75
2023-09-20T06:18:09.437Z,96415.81
2023-09-20T06:20:11.764Z,96414.28
2023-09-20T06:22:13.265Z,96406.66
2023-09-20T06:24:14.754Z,96410.66
2023-09-20T06:26:16.329Z,96409.25
2023-09-20T06:28:17.847Z,96403.44
2023-09-20T06:30:19.599Z,96396.63
2023-09-20T06:32:22.545Z,96402.50
2023-09-20T06:34:24.111Z,96406.28
2023-09-20T06:36:25.648Z,96399.63
2023-09-20T06:38:27.160Z,96392.34
2023-09-20T06:40:28.692Z,96393.09
2023-09-20T06:42:30.462Z,96383.59
2023-09-20T06:44:33.908Z,96381.53
2023-09-20T06:46:35.437Z,96377.16
2023-09-20T06:48:38.836Z,96384.44
2023-09-20T06:50:40.494Z,96380.72
2023-09-20T06:52:42.393Z,96382.34
2023-09-20T06:54:43.891Z,96375.22
2023-09-20T06:56:45.435Z,96378.28
2023-09-20T06:58:47.047Z,96375.53
2023-09-20T07:00:49.427Z,96375.25
2023-09-20T07:02:51.077Z,96375.84
2023-09-20T07:04:53.988Z,96369.75
2023-09-20T07:06:56.171Z,96367.94
2023-09-20T07:08:57.665Z,96364.75
2023-09-20T07:10:59.171Z,96365.53
2023-09-20T07:13:00.949Z,96357.06
2023-09-20T07:15:02.667Z,96357.94
2023-09-20T07:17:04.555Z,96364.38
2023-09-20T07:19:07.141Z,96367.66
2023-09-20T07:21:10.022Z,96367.06
2023-09-20T07:23:11.822Z,96365.63
2023-09-20T07:25:13.479Z,96366.47
2023-09-20T07:27:15.000Z,96360.94
2023-09-20T07:29:16.660Z,96366.13
2023-09-20T07:31:18.290Z,96360.94
2023-09-20T07:33:19.964Z,96364.13
2023-09-20T07:35:21.655Z,96361.84
2023-09-20T07:37:24.679Z,96359.97
2023-09-20T07:39:26.252Z,96358.59
2023-09-20T07:41:27.980Z,96359.28
2023-09-20T07:43:29.944Z,96357.19
2023-09-20T07:45:34.939Z,96355.22
2023-09-20T07:47:36.730Z,96356.72
2023-09-20T07:49:38.499Z,96345.66
2023-09-20T07:51:40.730Z,96343.91
2023-09-20T07:53:43.785Z,96346.94
2023-09-20T07:55:58.042Z,96341.78
2023-09-20T07:57:59.580Z,96343.75
2023-09-20T08:00:01.112Z,96335.94
2023-09-20T08:02:02.709Z,96335.19
2023-09-20T08:04:04.824Z,96327.94
2023-09-20T08:06:06.663Z,96335.19
2023-09-20T08:08:09.302Z,96326.06
2023-09-20T08:10:12.185Z,96330.00
2023-09-20T08:12:13.700Z,96320.72
2023-09-20T08:14:15.218Z,96318.72
2023-09-20T08:16:17.087Z,96333.97
2023-09-20T08:18:18.979Z,96327.16
2023-09-20T08:20:20.623Z,96333.44
2023-09-20T08:22:22.329Z,96330.19
2023-09-20T08:24:23.988Z,96329.69
2023-09-20T08:26:26.916Z,96324.78
2023-09-20T08:28:28.445Z,96321.06
2023-09-20T08:30:30.049Z,96333.66
2023-09-20T08:32:31.742Z,96336.31
2023-09-20T08:34:33.321Z,96329.44
2023-09-20T08:36:34.810Z,96339.63
2023-09-20T08:38:36.408Z,96344.53
2023-09-20T08:40:38.272Z,96336.47
2023-09-20T08:42:41.415Z,96348.38
2023-09-20T08:44:48.740Z,96341.84
2023-09-20T08:46:52.204Z,96346.19
2023-09-20T08:48:53.951Z,96345.13
2023-09-20T08:50:56.315Z,96344.69
2023-09-20T08:52:58.434Z,96345.50
2023-09-20T08:55:00.342Z,96336.03
2023-09-20T08:57:02.474Z,96337.47
2023-09-20T08:59:05.885Z,96338.31
2023-09-20T09:01:10.392Z,96328.31
2023-09-20T09:03:12.191Z,96336.06
2023-09-20T09:05:14.455Z,96335.59
2023-09-20T09:07:16.487Z,96337.00
2023-09-20T09:09:18.174Z,96324.00
2023-09-20T09:11:19.937Z,96336.25
2023-09-20T09:13:21.962Z,96342.13
2023-09-20T09:15:26.139Z,96330.91
2023-09-20T09:17:27.943Z,96323.63
2023-09-20T09:19:29.635Z,96320.78
2023-09-20T09:21:31.301Z,96323.56
2023-09-20T09:23:34.033Z,96322.38
2023-09-20T09:25:35.528Z,96329.28
2023-09-20T09:27:37.065Z,96328.03
2023-09-20T09:29:38.757Z,96328.78
2023-09-20T09:31:41.750Z,96329.09
2023-09-20T09:33:43.527Z,96326.13
2023-09-20T09:35:48.389Z,96326.63
2023-09-20T09:37:51.389Z,96310.25
2023-09-20T09:39:59.835Z,96303.44
2023-09-20T09:42:01.336Z,96306.25
2023-09-20T09:44:02.844Z,96298.44
2023-09-20T09:46:06.379Z,96289.38
2023-09-20T09:48:09.647Z,96297.28
2023-09-20T09:50:11.984Z,96292.09
2023-09-20T09:52:14.274Z,96292.19
2023-09-20T09:54:16.661Z,96295.81
2023-09-20T09:56:18.836Z,96288.09
2023-09-20T09:58:20.398Z,96288.09
2023-09-20T10:00:22.072Z,96286.19
2023-09-20T10:02:26.770Z,96282.72
2023-09-20T10:04:32.548Z,96283.25
2023-09-20T10:06:35.820Z,96282.72
2023-09-20T10:08:39.488Z,96281.13
2023-09-20T10:10:41.156Z,96290.66
2023-09-20T10:12:44.543Z,96280.78
2023-09-20T10:14:47.147Z,96281.91
2023-09-20T10:16:49.329Z,96274.84
2023-09-20T10:19:00.681Z,96282.47
2023-09-20T10:21:06.983Z,96274.63
2023-09-20T10:23:08.558Z,96274.41
2023-09-20T10:25:29.371Z,96262.47
2023-09-20T10:27:32.719Z,96256.84
2023-09-20T10:29:34.214Z,96267.44
2023-09-20T10:31:39.935Z,96261.81
2023-09-20T10:33:43.864Z,96253.94
2023-09-20T10:35:46.913Z,96252.84
2023-09-20T10:38:03.781Z,96247.00
2023-09-20T10:40:07.752Z,96242.69
2023-09-20T10:42:13.199Z,96243.00
2023-09-20T10:44:30.464Z,96239.50
2023-09-20T10:46:36.152Z,96231.34
2023-09-20T10:48:41.871Z,96229.91
2023-09-20T10:50:46.829Z,96231.22
2023-09-20T10:52:55.267Z,96233.13
2023-09-20T10:55:29.240Z,96229.66
2023-09-20T10:57:32.285Z,96218.44
2023-09-20T10:59:34.457Z,96219.78
2023-09-20T11:01:36.382Z,96219.84
2023-09-20T11:03:37.985Z,96219.19
2023-09-20T11:05:40.427Z,96210.03
2023-09-20T11:07:42.848Z,96211.72
2023-09-20T11:09:48.308Z,96205.31
2023-09-20T11:11:49.955Z,96204.22
2023-09-20T11:13:52.870Z,96206.44
2023-09-20T11:15:56.164Z,96195.09
2023-09-20T11:17:57.740Z,96196.53
2023-09-20T11:19:59.303Z,96195.47
2023-09-20T11:22:01.182Z,96191.19
2023-09-20T11:24:02.902Z,96182.81
2023-09-20T11:26:04.834Z,96189.31
2023-09-20T11:28:07.379Z,96196.38
2023-09-20T11:30:11.002Z,96200.72
2023-09-20T11:32:12.783Z,96185.63
2023-09-20T11:34:14.479Z,96184.00
2023-09-20T11:36:16.711Z,96182.41
2023-09-20T11:38:18.614Z,96181.06
2023-09-20T11:40:20.253Z,96175.91
2023-09-20T11:42:25.806Z,96176.47
2023-09-20T11:44:27.320Z,96174.88
2023-09-20T11:46:32.147Z,96158.06
2023-09-20T11:48:33.773Z,96163.47
2023-09-20T11:50:35.545Z,96162.41
2023-09-20T11:52:37.108Z,96153.19
2023-09-20T11:54:39.271Z,96153.19
2023-09-20T11:56:40.827Z,96151.00
2023-09-20T11:58:43.269Z,96147.47
2023-09-20T12:00:45.837Z,96142.56
2023-09-20T12:02:49.471Z,96141.75
2023-09-20T12:04:51.728Z,96143.88
2023-09-20T12:06:53.246Z,96139.53
2023-09-20T12:08:54.840Z,96131.66
2023-09-20T12:10:56.498Z,96143.28
2023-09-20T12:12:58.362Z,96132.97
2023-09-20T12:14:59.910Z,96133.78
2023-09-20T12:17:01.566Z,96131.25
2023-09-20T12:19:04.527Z,96132.34
2023-09-20T12:21:06.900Z,96130.72
2023-09-20T12:23:08.439Z,96125.19
2023-09-20T12:25:10.379Z,96113.22
2023-09-20T12:27:11.891Z,96120.81
2023-09-20T12:29:13.436Z,96105.25
2023-09-20T12:31:15.008Z,96116.31
2023-09-20T12:33:16.700Z,96117.06
2023-09-20T12:35:19.784Z,96102.66
2023-09-20T12:37:21.354Z,96109.16
2023-09-20T12:39:22.872Z,96098.06
2023-09-20T12:41:24.764Z,96091.75
2023-09-20T12:43:26.365Z,96084.06
2023-09-20T12:45:27.946Z,96091.56
2023-09-20T12:47:29.499Z,96080.34
2023-09-20T12:49:31.087Z,96078.41
2023-09-20T12:51:33.997Z,96080.53
2023-09-20T12:53:35.570Z,96077.63
2023-09-20T12:55:38.583Z,96077.06
2023-09-20T12:57:40.374Z,96072.72
2023-09-20T12:59:41.940Z,96063.66
2023-09-20T13:01:43.554Z,96065.69
2023-09-20T13:03:45.821Z,96059.81
2023-09-20T13:05:48.483Z,96058.72
2023-09-20T13:07:51.360Z,96057.16
2023-09-20T13:09:53.084Z,96048.09
2023-09-20T13:11:54.730Z,96045.91
2023-09-20T13:13:56.314Z,96042.44
2023-09-20T13:15:58.297Z,96048.06
2023-09-20T13:17:59.984Z,96039.97
2023-09-20T13:20:01.559Z,96036.66
2023-09-20T13:22:03.112Z,96034.88
2023-09-20T13:24:06.619Z,96046.66
2023-09-20T13:26:08.133Z,96030.66
2023-09-20T13:28:09.880Z,96032.78
2023-09-20T13:30:12.382Z,96029.38
2023-09-20T13:32:13.863Z,96030.75
2023-09-20T13:34:15.444Z,96019.75
2023-09-20T13:36:17.138Z,96018.13
2023-09-20T13:38:18.688Z,96017.72
2023-09-20T13:40:21.818Z,96000.88
2023-09-20T13:42:23.152Z,95997.97
2023-09-20T13:44:24.840Z,95996.75
2023-09-20T13:46:26.399Z,95995.31
2023-09-20T13:48:28.057Z,95994.41
2023-09-20T13:50:29.820Z,95992.50
2023-09-20T13:52:31.472Z,95995.44
2023-09-20T13:54:32.985Z,95989.66
2023-09-20T13:56:35.908Z,95989.44
2023-09-20T13:58:37.452Z,95976.16
2023-09-20T14:00:39.015Z,95977.03
2023-09-20T14:02:41.248Z,95975.41
2023-09-20T14:04:42.988Z,95969.69
2023-09-20T14:06:44.530Z,95976.47
2023-09-20T14:08:46.084Z,95972.19
2023-09-20T14:10:47.616Z,95972.06
2023-09-20T14:12:51.450Z,95975.09
2023-09-20T14:14:53.042Z,95963.84
2023-09-20T14:16:54.609Z,95966.63
2023-09-20T14:18:56.118Z,95965.38
2023-09-20T14:21:01.998Z,95965.88
2023-09-20T14:23:03.767Z,95946.22
2023-09-20T14:25:06.033Z,95956.91
2023-09-20T14:27:09.630Z,95955.78
2023-09-20T14:29:12.515Z,95954.66
2023-09-20T14:31:14.812Z,95946.84
2023-09-20T14:33:16.470Z,95944.13
2023-09-20T14:35:18.471Z,95941.59
2023-09-20T14:37:20.150Z,95939.03
2023-09-20T14:39:21.681Z,95933.22
2023-09-20T14:41:23.285Z,95926.19
2023-09-20T14:43:24.800Z,95929.06
2023-09-20T14:45:29.299Z,95924.06
2023-09-20T14:47:30.874Z,95929.09
2023-09-20T14:49:32.408Z,95933.19
2023-09-20T14:51:33.976Z,95927.72
2023-09-20T14:53:35.510Z,95914.75
2023-09-20T14:55:37.069Z,95919.28
2023-09-20T14:57:38.833Z,95915.41
2023-09-20T14:59:40.334Z,95915.00
2023-09-20T15:01:43.243Z,95907.66
2023-09-20T15:03:45.277Z,95906.56
2023-09-20T15:05:47.079Z,95901.50
2023-09-20T15:07:49.788Z,95890.50
2023-09-20T15:09:51.376Z,95893.97
2023-09-20T15:11:52.912Z,95891.53
2023-09-20T15:13:54.451Z,95881.38
2023-09-20T15:15:55.961Z,95889.44
2023-09-20T15:17:59.807Z,95886.81
2023-09-20T15:20:01.860Z,95882.28
2023-09-20T15:22:05.341Z,95882.34
2023-09-20T15:24:08.309Z,95882.06
2023-09-20T15:26:10.876Z,95880.06
2023-09-20T15:28:12.378Z,95879.84
2023-09-20T15:30:14.541Z,95875.00
2023-09-20T15:32:16.760Z,95880.91
2023-09-20T15:34:19.664Z,95878.19
2023-09-20T15:36:21.166Z,95871.84
2023-09-20T15:38:22.717Z,95872.50
2023-09-20T15:40:24.326Z,95859.84
2023-09-20T15:42:25.810Z,95865.53
2023-09-20T15:44:27.359Z,95862.28
2023-09-20T15:46:28.881Z,95859.19
2023-09-20T15:48:30.960Z,95855.38
2023-09-20T15:50:33.882Z,95853.75
2023-09-20T15:52:35.490Z,95852.13
2023-09-20T15:54:37.108Z,95850.50
2023-09-20T15:56:38.652Z,95850.28
2023-09-20T15:58:40.242Z,95848.56
2023-09-20T16:00:41.749Z,95852.34
2023-09-20T16:02:43.819Z,95851.50
2023-09-20T16:04:45.758Z,95847.69
2023-09-20T16:06:48.752Z,95848.78
2023-09-20T16:08:50.320Z,95843.38
2023-09-20T16:10:51.838Z,95836.38
2023-09-20T16:12:53.449Z,95849.41
2023-09-20T16:14:55.283Z,95836.66
2023-09-20T16:16:56.814Z,95834.66
2023-09-20T16:18:58.648Z,95832.25
2023-09-20T16:21:00.249Z,95830.69
2023-09-20T16:23:04.324Z,95829.13
2023-09-20T16:25:06.452Z,95828.94
2023-09-20T16:27:08.072Z,95827.56
2023-09-20T16:29:09.688Z,95826.28
2023-09-20T16:31:12.575Z,95826.63
2023-09-20T16:33:14.277Z,95838.06
2023-09-20T16:35:16.895Z,95822.91
2023-09-20T16:37:18.984Z,95826.47
2023-09-20T16:39:21.847Z,95829.47
2023-09-20T16:41:23.404Z,95820.78
2023-09-20T16:43:25.071Z,95815.94
2023-09-20T16:45:26.631Z,95825.75
2023-09-20T16:47:28.186Z,95821.44
2023-09-20T16:49:29.743Z,95828.00
2023-09-20T16:51:31.348Z,95821.47
2023-09-20T16:53:34.532Z,95823.44
2023-09-20T16:55:37.632Z,95822.91
2023-09-20T16:57:39.505Z,95823.19
2023-09-20T16:59:41.121Z,95818.91
2023-09-20T17:01:42.678Z,95823.31
2023-09-20T17:03:44.278Z,95815.19
2023-09-20T17:05:46.135Z,95820.41
2023-09-20T17:07:47.738Z,95813.06
2023-09-20T17:09:49.259Z,95814.22
2023-09-20T17:11:52.167Z,95817.22
2023-09-20T17:13:53.664Z,95816.16
2023-09-20T17:15:55.173Z,95820.00
2023-09-20T17:17:56.768Z,95819.22
2023-09-20T17:19:58.491Z,95820.34
2023-09-20T17:22:00.031Z,95809.53
2023-09-20T17:24:01.613Z,95816.63
2023-09-20T17:26:03.149Z,95810.13
2023-09-20T17:28:06.855Z,95809.09
2023-09-20T17:30:09.258Z,95807.22
2023-09-20T17:32:10.807Z,95800.72
2023-09-20T17:34:12.694Z,95809.72
2023-09-20T17:36:14.383Z,95797.31
2023-09-20T17:38:16.260Z,95802.47
2023-09-20T17:40:17.937Z,95795.72
2023-09-20T17:42:19.531Z,95792.00
2023-09-20T17:44:22.412Z,95801.78
2023-09-20T17:46:24.066Z,95791.19
2023-09-20T17:48:25.675Z,95797.75
2023-09-20T17:50:27.278Z,95795.06
2023-09-20T17:52:28.825Z,95794.28
2023-09-20T17:54:30.332Z,95793.22
2023-09-20T17:56:31.928Z,95797.03
2023-09-20T17:58:33.649Z,95803.56
2023-09-20T18:00:36.586Z,95793.28
2023-09-20T18:02:38.625Z,95800.59
2023-09-20T18:04:40.304Z,95802.50
2023-09-20T18:06:41.946Z,95804.66
2023-09-20T18:08:44.450Z,95804.69
2023-09-20T18:10:46.104Z,95807.94
2023-09-20T18:12:47.648Z,95809.84
2023-09-20T18:14:49.214Z,95812.03
2023-09-20T18:16:52.141Z,95815.56
2023-09-20T18:18:53.829Z,95819.91
2023-09-20T18:20:55.442Z,95827.22
2023-09-20T18:22:56.971Z,95828.03
2023-09-20T18:24:58.667Z,95815.28
2023-09-20T18:27:00.188Z,95824.75
2023-09-20T18:29:01.881Z,95823.13
2023-09-20T18:31:11.845Z,95828.81
2023-09-20T18:33:14.962Z,95828.53
2023-09-20T18:35:16.718Z,95828.50
2023-09-20T18:37:18.248Z,95831.78
2023-09-20T18:39:19.763Z,95836.06
2023-09-20T18:41:21.356Z,95831.72
2023-09-20T18:43:22.900Z,95831.72
2023-09-20T18:45:24.401Z,95834.44
2023-09-20T18:47:37.663Z,95837.69
2023-09-20T18:49:46.144Z,95831.16
2023-09-20T18:51:47.636Z,95832.78
2023-09-20T18:53:49.203Z,95835.72
2023-09-20T18:55:50.826Z,95827.34
2023-09-20T18:57:53.543Z,95838.66
2023-09-20T18:59:55.093Z,95838.66
2023-09-20T19:01:56.642Z,95837.00
2023-09-20T19:03:58.333Z,95844.56
2023-09-20T19:06:01.447Z,95844.81
2023-09-20T19:08:03.514Z,95848.84
2023-09-20T19:10:06.515Z,95843.97
2023-09-20T19:12:08.089Z,95848.81
2023-09-20T19:14:09.732Z,95845.25
2023-09-20T19:16:11.273Z,95840.69
2023-09-20T19:18:12.992Z,95845.22
2023-09-20T19:20:14.777Z,95841.97
2023-09-20T19:22:17.665Z,95836.59
2023-09-20T19:24:19.302Z,95836.28
2023-09-20T19:26:20.978Z,95839.50
2023-09-20T19:28:22.746Z,95841.09
2023-09-20T19:30:24.250Z,95839.72
2023-09-20T19:32:25.797Z,95834.81
2023-09-20T19:34:27.316Z,95843.66
2023-09-20T19:36:29.859Z,95837.19
2023-09-20T19:38:32.993Z,95837.16
2023-09-20T19:40:34.534Z,95845.22
2023-09-20T19:42:36.049Z,95845.22
2023-09-20T19:44:37.593Z,95842.25
2023-09-20T19:46:39.102Z,95840.34
2023-09-20T19:48:41.149Z,95837.53
2023-09-20T19:50:43.725Z,95843.44
2023-09-20T19:52:45.849Z,95843.97
2023-09-20T19:54:48.821Z,95843.50
2023-09-20T19:56:50.351Z,95831.53
2023-09-20T19:58:51.886Z,95830.50
2023-09-20T20:00:53.481Z,95839.59
2023-09-20T20:02:56.358Z,95833.91
2023-09-20T20:04:58.044Z,95833.09
2023-09-20T20:07:03.658Z,95846.31
2023-09-20T20:09:12.221Z,95842.78
2023-09-20T20:11:15.125Z,95848.28
2023-09-20T20:13:16.610Z,95842.25
2023-09-20T20:15:18.140Z,95843.59
2023-09-20T20:17:19.621Z,95838.44
2023-09-20T20:19:21.118Z,95842.25
2023-09-20T20:21:22.631Z,95840.47
2023-09-20T20:23:24.112Z,95840.53
2023-09-20T20:25:26.982Z,95842.06
2023-09-20T20:27:29.868Z,95837.78
2023-09-20T20:29:31.404Z,95842.63
2023-09-20T20:31:32.961Z,95831.34
2023-09-20T20:33:35.826Z,95827.84
2023-09-20T20:35:38.143Z,95840.53
2023-09-20T20:37:43.112Z,95839.41
2023-09-20T20:39:44.626Z,95839.41
2023-09-20T20:41:46.187Z,95836.75
2023-09-20T20:43:49.260Z,95825.13
2023-09-20T20:45:50.835Z,95832.91
2023-09-20T20:47:54.080Z,95831.78
2023-09-20T20:49:55.643Z,95829.84
2023-09-20T20:51:57.166Z,95823.13
2023-09-20T20:53:58.790Z,95822.81
2023-09-20T20:56:00.335Z,95824.78
2023-09-20T20:58:02.230Z,95816.31
2023-09-20T21:00:06.530Z,95818.75
2023-09-20T21:02:08.107Z,95820.41
2023-09-20T21:04:09.821Z,95813.34
2023-09-20T21:06:11.503Z,95813.31
2023-09-20T21:08:13.868Z,95814.03
2023-09-20T21:10:15.512Z,95815.59
2023-09-20T21:12:17.072Z,95814.78
2023-09-20T21:14:18.583Z,95806.91
2023-09-20T21:16:21.548Z,95804.44
2023-09-20T21:18:23.298Z,95809.81
2023-09-20T21:20:25.302Z,95815.22
2023-09-20T21:22:26.826Z,95807.31
2023-09-20T21:24:28.345Z,95807.28
2023-09-20T21:26:29.882Z,95811.84
2023-09-20T21:28:31.509Z,95811.34
2023-09-20T21:30:34.332Z,95807.28
2023-09-20T21:32:37.366Z,95806.22
2023-09-20T21:34:39.005Z,95799.16
2023-09-20T21:36:40.527Z,95800.47
2023-09-20T21:38:42.294Z,95802.91
2023-09-20T21:40:44.092Z,95801.28
2023-09-20T21:42:45.658Z,95794.78
2023-09-20T21:44:47.188Z,95797.72
2023-09-20T21:46:48.855Z,95790.19
2023-09-20T21:48:51.863Z,95799.91
2023-09-20T21:50:53.510Z,95795.34
2023-09-20T21:52:56.712Z,95788.44
2023-09-20T21:54:58.233Z,95791.50
2023-09-20T21:56:59.781Z,95789.06
2023-09-20T21:59:01.307Z,95795.06
2023-09-20T22:01:03.357Z,95787.13
2023-09-20T22:03:06.374Z,95791.22
2023-09-20T22:05:10.334Z,95795.91
2023-09-20T22:07:11.917Z,95789.84
2023-09-20T22:09:13.502Z,95792.19
2023-09-20T22:11:15.073Z,95791.03
2023-09-20T22:13:16.925Z,95787.97
2023-09-20T22:15:18.673Z,95789.53
2023-09-20T22:17:20.274Z,95784.72
2023-09-20T22:19:21.792Z,95785.53
2023-09-20T22:21:24.712Z,95781.78
2023-09-20T22:23:26.220Z,95778.41
2023-09-20T22:25:27.948Z,95782.09
2023-09-20T22:27:29.475Z,95771.41
2023-09-20T22:29:31.011Z,95773.03
2023-09-20T22:31:32.566Z,95770.06
2023-09-20T22:33:34.153Z,95767.63
2023-09-20T22:35:35.875Z,95766.72
2023-09-20T22:37:39.150Z,95769.16
2023-09-20T22:39:40.691Z,95761.69
2023-09-20T22:41:42.829Z,95762.94
2023-09-20T22:43:44.609Z,95758.94
2023-09-20T22:45:46.103Z,95752.50
2023-09-20T22:47:49.088Z,95752.31
2023-09-20T22:49:50.679Z,95751.19
2023-09-20T22:51:52.194Z,95742.00
2023-09-20T22:53:55.100Z,95751.19
2023-09-20T22:55:56.619Z,95745.75
2023-09-20T22:57:58.558Z,95738.41
2023-09-20T23:00:00.160Z,95753.69
2023-09-20T23:02:01.758Z,95745.63
2023-09-20T23:04:03.475Z,95750.00
2023-09-20T23:06:05.283Z,95735.97
2023-09-20T23:08:07.055Z,95737.97
2023-09-20T23:10:11.069Z,95736.16
2023-09-20T23:12:12.701Z,95728.28
2023-09-20T23:14:14.265Z,95744.50
2023-09-20T23:16:15.875Z,95728.03
2023-09-20T23:18:17.568Z,95742.75
2023-09-20T23:20:19.389Z,95735.84
2023-09-20T23:22:20.946Z,95727.34
2023-09-20T23:24:22.524Z,95727.78
2023-09-20T23:26:25.372Z,95728.34
2023-09-20T23:28:27.033Z,95728.84
2023-09-20T23:30:32.029Z,95728.34
2023-09-20T23:32:33.608Z,95723.94
2023-09-20T23:34:35.162Z,95731.84
2023-09-20T23:36:36.706Z,95723.22
2023-09-20T23:38:38.266Z,95717.09
2023-09-20T23:40:40.086Z,95725.72
2023-09-20T23:42:42.975Z,95718.59
2023-09-20T23:44:44.475Z,95715.31
2023-09-20T23:46:46.002Z,95721.84
2023-09-20T23:48:48.910Z,95718.03
2023-09-20T23:51:00.426Z,95718.22
2023-09-20T23:53:02.117Z,95714.72
2023-09-20T23:55:04.131Z,95716.09